Time;durP1;ratioP1;P1;durP2;ratioP2;P2;SDS_P1;SDS_P2;PMS_P1;PMS_P2;Temp;Humidity;BMP_temperature;BMP_pressure;BME280_temperature;BME280_humidity;BME280_pressure;Samples;Min_cycle;Max_cycle;Signal;HPM_P1;HPM_P2
2023/11/28 00:00:03;;;;;;;83.20;37.50;;;;;;;-2.46;90.89;98449.77;131585;1296;22582;-81
2023/11/28 00:03:12;;;;;;;73.80;34.90;;;;;;;-2.46;90.96;98441.41;131370;1298;22595;-81
2023/11/28 00:06:16;;;;;;;83.10;39.50;;;;;;;-2.46;91.09;98440.02;131593;1298;22886;-80
2023/11/28 00:09:17;;;;;;;74.80;36.80;;;;;;;-2.45;90.93;98431.95;131517;1298;23905;-79
2023/11/28 00:12:17;;;;;;;77.10;36.10;;;;;;;-2.44;91.65;98423.26;131519;1297;22574;-81
2023/11/28 00:15:18;;;;;;;76.20;36.30;;;;;;;-2.45;91.48;98420.60;131579;1298;23383;-79
2023/11/28 00:18:19;;;;;;;75.50;37.70;;;;;;;-2.46;91.43;98409.34;131548;1297;22568;-82
2023/11/28 00:21:19;;;;;;;83.20;40.20;;;;;;;-2.47;92.01;98406.66;131656;1297;22588;-81
2023/11/28 00:24:20;;;;;;;84.00;41.40;;;;;;;-2.47;91.63;98407.89;131699;1298;22615;-83
2023/11/28 00:27:20;;;;;;;83.20;39.10;;;;;;;-2.47;91.89;98412.76;131309;1297;22573;-81
2023/11/28 00:30:21;;;;;;;79.10;39.20;;;;;;;-2.50;91.98;98409.52;131295;1298;23781;-82
2023/11/28 00:33:21;;;;;;;87.60;41.30;;;;;;;-2.54;92.11;98411.91;131381;1298;22713;-82
2023/11/28 00:36:22;;;;;;;78.80;38.90;;;;;;;-2.57;92.08;98409.58;131565;1292;22603;-81
2023/11/28 00:39:22;;;;;;;82.40;40.40;;;;;;;-2.60;92.26;98405.85;131419;1298;23474;-82
2023/11/28 00:42:23;;;;;;;81.30;37.30;;;;;;;-2.61;92.26;98404.54;131222;1297;22649;-81
2023/11/28 00:45:25;;;;;;;;;;;;;;;-2.62;92.74;98406.49;131315;1292;26205;-78
2023/11/28 00:48:25;;;;;;;84.00;40.50;;;;;;;-2.64;92.60;98396.61;131354;1289;22628;-79
2023/11/28 00:51:26;;;;;;;76.90;38.50;;;;;;;-2.64;92.79;98394.78;131286;1298;23031;-80
2023/11/28 00:54:26;;;;;;;77.70;38.80;;;;;;;-2.64;92.88;98393.36;131073;1298;22584;-81
2023/11/28 00:57:28;;;;;;;85.00;41.90;;;;;;;-2.65;93.49;98393.97;131465;1298;22546;-82
2023/11/28 01:00:29;;;;;;;82.00;39.90;;;;;;;-2.67;93.47;98392.44;131202;1297;24313;-81
2023/11/28 01:03:29;;;;;;;94.60;43.70;;;;;;;-2.70;93.48;98388.15;131336;1282;22555;-80
2023/11/28 01:06:31;;;;;;;82.20;40.60;;;;;;;-2.72;93.23;98382.59;131248;1295;23627;-80
2023/11/28 01:09:33;;;;;;;82.20;41.10;;;;;;;-2.76;93.44;98378.21;131178;1293;22600;-82
2023/11/28 01:12:34;;;;;;;81.00;40.70;;;;;;;-2.80;93.79;98377.30;131004;1301;24233;-83
2023/11/28 01:15:34;;;;;;;91.40;44.90;;;;;;;-2.81;94.02;98376.02;131256;1299;22689;-82
2023/11/28 01:18:35;;;;;;;86.40;42.70;;;;;;;-2.81;93.73;98368.59;131325;1301;22628;-82
2023/11/28 01:21:35;;;;;;;87.10;43.20;;;;;;;-2.81;93.98;98360.98;131091;1298;24923;-83
2023/11/28 01:24:36;;;;;;;91.20;41.40;;;;;;;-2.81;94.23;98359.27;131307;1298;22577;-81
2023/11/28 01:27:36;;;;;;;81.00;37.10;;;;;;;-2.81;94.32;98353.34;131227;1294;26631;-80
2023/11/28 01:30:37;;;;;;;78.50;39.20;;;;;;;-2.80;94.40;98342.88;131223;1297;22637;-84
2023/11/28 01:33:38;;;;;;;72.20;35.10;;;;;;;-2.79;94.84;98339.67;131136;1298;22618;-83
2023/11/28 01:36:43;;;;;;;84.00;42.30;;;;;;;-2.78;95.29;98332.84;131118;1281;25569;-80
2023/11/28 01:39:44;;;;;;;89.60;43.80;;;;;;;-2.77;95.14;98326.17;131356;1298;23265;-82
2023/11/28 01:42:47;;;;;;;88.10;41.60;;;;;;;-2.76;95.43;98327.19;131395;1298;22552;-81
2023/11/28 01:45:48;;;;;;;74.70;39.00;;;;;;;-2.76;95.40;98331.16;131244;1301;22742;-82
2023/11/28 01:48:49;;;;;;;83.70;39.90;;;;;;;-2.76;96.18;98323.84;131412;1294;22555;-81
2023/11/28 01:51:50;;;;;;;86.50;43.10;;;;;;;-2.75;95.84;98318.98;131449;1294;23217;-82
2023/11/28 01:54:51;;;;;;;89.80;40.20;;;;;;;-2.74;96.06;98315.04;131187;1296;22558;-81
2023/11/28 01:57:51;;;;;;;92.10;42.00;;;;;;;-2.74;96.41;98314.38;131471;1298;22598;-82
2023/11/28 02:00:52;;;;;;;81.50;38.80;;;;;;;-2.74;96.25;98309.52;131492;1298;23341;-82
2023/11/28 02:03:53;;;;;;;87.00;42.40;;;;;;;-2.74;96.25;98305.52;131320;1289;22616;-83
2023/11/28 02:06:54;;;;;;;83.70;40.20;;;;;;;-2.73;96.08;98303.36;131159;1298;23394;-81
2023/11/28 02:09:56;;;;;;;;;;;;;;;-2.73;96.22;98293.83;131429;1298;23354;-82
2023/11/28 02:12:57;;;;;;;77.80;35.30;;;;;;;-2.72;96.33;98288.43;131234;1300;24527;-82
2023/11/28 02:16:12;;;;;;;71.80;36.50;;;;;;;-2.73;96.22;98277.96;131341;1294;150808;-80
2023/11/28 02:19:12;;;;;;;58.10;31.00;;;;;;;-2.74;96.30;98272.80;131393;1298;23513;-80
2023/11/28 02:22:13;;;;;;;65.30;33.70;;;;;;;-2.76;96.39;98269.34;131253;1298;22557;-81
2023/11/28 02:25:13;;;;;;;60.30;31.50;;;;;;;-2.77;96.26;98262.89;131479;1298;23971;-80
2023/11/28 02:28:22;;;;;;;68.00;33.00;;;;;;;-2.79;96.57;98258.88;131326;1291;23427;-82
2023/11/28 02:31:22;;;;;;;60.00;31.30;;;;;;;-2.81;96.35;98255.38;131427;1298;22775;-83
2023/11/28 02:34:23;;;;;;;68.40;34.60;;;;;;;-2.83;96.52;98246.42;131415;1298;22560;-81
2023/11/28 02:37:23;;;;;;;63.60;32.60;;;;;;;-2.84;96.62;98245.77;131442;1300;23050;-82
2023/11/28 02:40:25;;;;;;;59.50;30.30;;;;;;;-2.84;96.68;98238.93;131454;1282;22658;-81
2023/11/28 02:43:25;;;;;;;54.80;28.10;;;;;;;-2.85;96.61;98237.25;131198;1301;25278;-81
2023/11/28 02:46:26;;;;;;;53.80;29.00;;;;;;;-2.86;96.92;98233.02;131225;1300;23009;-82
2023/11/28 02:49:26;;;;;;;52.00;29.20;;;;;;;-2.87;96.97;98228.57;131181;1292;27620;-83
2023/11/28 02:52:27;;;;;;;46.60;24.00;;;;;;;-2.85;96.98;98226.19;131206;1297;23214;-81
2023/11/28 02:55:27;;;;;;;44.30;25.00;;;;;;;-2.84;97.14;98223.36;131120;1296;23402;-80
2023/11/28 02:58:28;;;;;;;45.50;23.70;;;;;;;-2.84;97.44;98224.00;131128;1292;23422;-82
2023/11/28 03:01:28;;;;;;;46.50;24.50;;;;;;;-2.84;97.31;98216.53;131179;1298;22630;-81
2023/11/28 03:04:29;;;;;;;50.80;26.00;;;;;;;-2.83;97.46;98207.27;131145;1291;22682;-79
2023/11/28 03:07:29;;;;;;;47.70;25.50;;;;;;;-2.82;97.45;98202.19;131255;1299;22553;-82
2023/11/28 03:10:30;;;;;;;54.00;25.80;;;;;;;-2.82;97.41;98203.58;131089;1294;23415;-83
2023/11/28 03:13:30;;;;;;;44.80;25.20;;;;;;;-2.82;97.66;98208.04;131129;1298;22582;-79
2023/11/28 03:16:31;;;;;;;44.80;25.70;;;;;;;-2.82;97.70;98209.80;131203;1292;25374;-82
2023/11/28 03:19:31;;;;;;;52.00;26.10;;;;;;;-2.82;97.83;98203.71;131302;1298;26363;-80
2023/11/28 03:22:32;;;;;;;48.00;24.50;;;;;;;-2.82;97.58;98196.83;131067;1299;22603;-82
2023/11/28 03:25:32;;;;;;;49.50;25.70;;;;;;;-2.82;97.78;98198.73;131340;1298;22552;-82
2023/11/28 03:28:33;;;;;;;50.50;27.90;;;;;;;-2.82;97.68;98193.73;131245;1295;25417;-81
2023/11/28 03:31:33;;;;;;;53.20;27.40;;;;;;;-2.83;97.79;98195.52;131340;1295;22562;-80
2023/11/28 03:34:36;;;;;;;59.50;27.60;;;;;;;-2.83;97.83;98195.32;131137;1298;22577;-81
2023/11/28 03:37:36;;;;;;;50.90;28.00;;;;;;;-2.83;97.79;98183.77;131300;1296;24528;-82
2023/11/28 03:40:37;;;;;;;55.90;28.70;;;;;;;-2.83;97.48;98176.12;131320;1301;25329;-82
2023/11/28 03:43:37;;;;;;;56.30;28.70;;;;;;;-2.82;97.85;98172.62;131325;1291;23552;-81
2023/11/28 03:46:38;;;;;;;50.80;28.10;;;;;;;-2.83;97.90;98171.96;131385;1295;22577;-84
2023/11/28 03:49:38;;;;;;;53.70;28.40;;;;;;;-2.83;97.79;98172.16;131231;1301;23461;-84
2023/11/28 03:52:40;;;;;;;50.60;28.70;;;;;;;-2.83;98.00;98169.54;131216;1301;22559;-79
2023/11/28 03:55:41;;;;;;;56.00;27.80;;;;;;;-2.82;98.01;98169.34;131389;1300;22629;-81
2023/11/28 03:58:43;;;;;;;53.50;27.60;;;;;;;-2.82;98.44;98166.89;131104;1301;22675;-81
2023/11/28 04:01:44;;;;;;;47.20;25.40;;;;;;;-2.81;98.32;98168.23;131085;1298;22561;-83
2023/11/28 04:04:45;;;;;;;51.20;28.00;;;;;;;-2.80;98.42;98158.10;131133;1301;22563;-82
2023/11/28 04:07:46;;;;;;;51.70;29.40;;;;;;;-2.79;98.35;98154.05;131286;1298;22559;-84
2023/11/28 04:10:47;;;;;;;50.10;27.50;;;;;;;-2.80;98.73;98153.21;131106;1297;22597;-82
2023/11/28 04:13:48;;;;;;;56.00;31.90;;;;;;;-2.80;98.61;98153.59;131161;1299;22606;-80
2023/11/28 04:16:48;;;;;;;55.10;30.40;;;;;;;-2.81;98.70;98151.75;131320;1299;23911;-82
2023/11/28 04:19:49;;;;;;;60.40;32.30;;;;;;;-2.82;98.78;98151.31;131310;1301;22609;-80
2023/11/28 04:22:49;;;;;;;57.00;30.80;;;;;;;-2.83;99.12;98143.14;131316;1297;23920;-82
2023/11/28 04:25:50;;;;;;;57.00;30.10;;;;;;;-2.85;99.01;98141.19;131235;1301;23248;-80
2023/11/28 04:28:51;;;;;;;49.60;27.10;;;;;;;-2.86;98.79;98139.85;131785;1301;22555;-81
2023/11/28 04:31:52;;;;;;;60.50;29.50;;;;;;;-2.86;99.39;98146.30;131447;1298;22606;-81
2023/11/28 04:34:53;;;;;;;54.60;29.10;;;;;;;-2.87;99.02;98143.11;131148;1298;23079;-80
2023/11/28 04:37:54;;;;;;;55.10;28.00;;;;;;;-2.87;99.22;98143.95;131169;1298;23307;-80
2023/11/28 04:40:55;;;;;;;48.10;25.80;;;;;;;-2.87;99.14;98138.92;131175;1298;22581;-79
2023/11/28 04:43:55;;;;;;;51.60;26.90;;;;;;;-2.86;99.11;98139.85;131000;1298;23877;-80
2023/11/28 04:46:56;;;;;;;48.60;24.90;;;;;;;-2.84;98.98;98140.95;131207;1292;24322;-81
2023/11/28 04:49:57;;;;;;;48.10;23.10;;;;;;;-2.83;99.37;98139.97;130980;1294;25472;-79
2023/11/28 04:52:57;;;;;;;39.10;19.90;;;;;;;-2.82;99.35;98136.63;130875;1294;25497;-80
2023/11/28 04:55:58;;;;;;;44.80;24.10;;;;;;;-2.81;99.46;98137.55;131221;1298;23329;-79
2023/11/28 04:58:59;;;;;;;31.90;17.10;;;;;;;-2.80;99.30;98129.39;131231;1298;24260;-81
2023/11/28 05:01:59;;;;;;;46.10;19.80;;;;;;;-2.80;99.26;98135.90;130868;1298;24235;-81
2023/11/28 05:05:00;;;;;;;48.90;25.40;;;;;;;-2.80;99.53;98135.89;131067;1292;25425;-81
2023/11/28 05:08:00;;;;;;;43.40;23.10;;;;;;;-2.79;99.52;98131.15;130880;1288;24238;-81
2023/11/28 05:11:05;;;;;;;38.90;20.90;;;;;;;-2.78;99.58;98125.02;130892;1301;22611;-80
2023/11/28 05:14:05;;;;;;;34.00;15.20;;;;;;;-2.77;99.59;98121.34;130849;1295;22682;-80
2023/11/28 05:17:06;;;;;;;41.70;23.70;;;;;;;-2.78;99.74;98124.13;130760;1295;22766;-78
2023/11/28 05:20:08;;;;;;;41.00;21.40;;;;;;;-2.78;99.48;98123.08;130958;1294;22555;-80
2023/11/28 05:23:11;;;;;;;37.70;20.50;;;;;;;-2.77;99.37;98122.70;131284;1299;22587;-79
2023/11/28 05:26:12;;;;;;;43.50;22.10;;;;;;;-2.78;99.25;98120.48;131110;1292;23190;-81
2023/11/28 05:29:13;;;;;;;40.90;22.50;;;;;;;-2.79;99.43;98123.04;131371;1299;22556;-82
2023/11/28 05:32:13;;;;;;;43.10;22.90;;;;;;;-2.80;99.60;98120.39;131345;1298;22593;-81
2023/11/28 05:35:14;;;;;;;38.80;20.00;;;;;;;-2.80;99.48;98122.80;131066;1298;22589;-82
2023/11/28 05:38:14;;;;;;;40.20;23.90;;;;;;;-2.83;99.68;98120.79;131427;1289;22566;-80
2023/11/28 05:41:16;;;;;;;40.00;21.50;;;;;;;-2.84;99.43;98118.98;131237;1295;22659;-79
2023/11/28 05:44:20;;;;;;;38.00;22.40;;;;;;;-2.86;99.33;98117.80;131353;1297;22566;-78
2023/11/28 05:47:21;;;;;;;36.30;20.50;;;;;;;-2.87;99.41;98124.27;132569;1288;22618;-80
2023/11/28 05:50:24;;;;;;;40.50;21.20;;;;;;;-2.89;99.39;98120.58;131225;1295;23332;-81
2023/11/28 05:53:25;;;;;;;41.30;20.60;;;;;;;-2.91;99.38;98117.99;131323;1294;22928;-80
2023/11/28 05:56:25;;;;;;;33.00;18.50;;;;;;;-2.93;99.50;98112.46;131261;1294;22808;-80
2023/11/28 05:59:26;;;;;;;34.40;18.20;;;;;;;-2.95;99.54;98115.37;131378;1301;24043;-79
2023/11/28 06:02:27;;;;;;;39.70;22.10;;;;;;;-2.96;99.43;98117.71;131489;1291;24179;-81
2023/11/28 06:05:27;;;;;;;42.70;22.70;;;;;;;-2.97;99.43;98120.95;131484;1289;22700;-80
2023/11/28 06:08:28;;;;;;;37.70;18.50;;;;;;;-2.98;99.31;98123.30;131306;1295;22673;-82
2023/11/28 06:11:29;;;;;;;41.30;21.10;;;;;;;-3.00;99.39;98126.15;131361;1297;22552;-80
2023/11/28 06:14:32;;;;;;;41.10;22.20;;;;;;;-3.00;99.39;98122.61;131376;1298;22557;-81
2023/11/28 06:17:33;;;;;;;36.40;20.50;;;;;;;-3.01;99.45;98112.74;130970;1299;22682;-82
2023/11/28 06:20:34;;;;;;;37.30;22.00;;;;;;;-3.01;99.45;98115.53;131287;1301;23595;-82
2023/11/28 06:23:34;;;;;;;31.90;16.80;;;;;;;-3.01;99.31;98118.84;131408;1298;22643;-83
2023/11/28 06:26:35;;;;;;;29.10;16.30;;;;;;;-3.01;99.56;98120.75;131536;1299;22590;-82
2023/11/28 06:29:35;;;;;;;40.20;21.90;;;;;;;-3.02;99.31;98114.42;131286;1296;26075;-80
2023/11/28 06:32:36;;;;;;;38.30;20.40;;;;;;;-3.02;99.30;98122.02;131535;1294;22611;-81
2023/11/28 06:35:37;;;;;;;41.00;21.80;;;;;;;-3.01;99.16;98129.40;131157;1297;22698;-82
2023/11/28 06:38:37;;;;;;;40.90;23.00;;;;;;;-3.01;99.20;98131.27;131339;1301;22583;-80
2023/11/28 06:41:38;;;;;;;45.20;23.60;;;;;;;-3.01;99.00;98142.39;131142;1297;22618;-79
2023/11/28 06:44:38;;;;;;;41.80;22.30;;;;;;;-3.01;98.97;98138.77;131317;1301;22922;-83
2023/11/28 06:47:39;;;;;;;36.70;20.90;;;;;;;-3.02;99.31;98136.36;131389;1298;22685;-81
2023/11/28 06:50:40;;;;;;;43.50;24.50;;;;;;;-3.03;99.40;98134.23;131018;1298;25355;-81
2023/11/28 06:53:41;;;;;;;41.50;23.90;;;;;;;-3.03;99.07;98131.45;131369;1298;23317;-81
2023/11/28 06:56:41;;;;;;;;;;;;;;;-3.03;98.96;98132.02;131265;1290;22586;-81
2023/11/28 06:59:41;;;;;;;33.60;16.60;;;;;;;-3.04;98.92;98135.20;131209;1295;23909;-81
2023/11/28 07:02:42;;;;;;;41.10;21.20;;;;;;;-3.06;98.94;98139.49;131267;1298;22588;-81
2023/11/28 07:05:42;;;;;;;37.10;20.80;;;;;;;-3.07;98.46;98139.08;131246;1298;22602;-82
2023/11/28 07:08:43;;;;;;;42.30;22.60;;;;;;;-3.09;98.23;98138.03;131113;1304;23107;-81
2023/11/28 07:11:44;;;;;;;43.10;22.70;;;;;;;-3.09;98.10;98140.96;131129;1300;24243;-83
2023/11/28 07:14:45;;;;;;;41.20;20.70;;;;;;;-3.10;98.06;98141.57;131099;1299;22578;-86
2023/11/28 07:17:45;;;;;;;48.40;22.10;;;;;;;-3.10;97.58;98142.13;131515;1298;22574;-82
2023/11/28 07:20:50;;;;;;;43.20;24.00;;;;;;;-3.10;97.38;98142.95;131533;1298;23332;-83
2023/11/28 07:23:50;;;;;;;41.10;21.90;;;;;;;-3.09;97.36;98141.84;131371;1299;22705;-82
2023/11/28 07:26:51;;;;;;;45.90;24.30;;;;;;;-3.07;97.22;98140.45;131241;1302;22589;-84
2023/11/28 07:29:51;;;;;;;46.40;24.70;;;;;;;-3.07;97.08;98134.55;131046;1301;22541;-83
2023/11/28 07:32:52;;;;;;;37.70;20.10;;;;;;;-3.04;96.78;98136.95;131045;1301;25509;-83
2023/11/28 07:35:53;;;;;;;47.80;23.70;;;;;;;-3.04;96.74;98140.86;131281;1301;27607;-85
2023/11/28 07:38:53;;;;;;;45.00;24.70;;;;;;;-3.04;96.28;98139.86;130929;1298;22567;-83
2023/11/28 07:41:54;;;;;;;46.30;20.40;;;;;;;-3.04;96.04;98140.59;131453;1295;24732;-83
2023/11/28 07:44:54;;;;;;;42.50;21.60;;;;;;;-3.07;95.37;98141.51;131495;1298;22597;-82
2023/11/28 07:47:57;;;;;;;41.70;21.70;;;;;;;-3.06;95.53;98146.27;131481;1288;22639;-83
2023/11/28 07:50:58;;;;;;;37.40;19.50;;;;;;;-3.05;95.31;98149.43;131385;1304;22552;-84
2023/11/28 07:53:58;;;;;;;38.60;20.40;;;;;;;-3.05;94.94;98148.04;131450;1298;22633;-83
2023/11/28 07:56:59;;;;;;;43.40;21.10;;;;;;;-3.04;94.76;98147.47;131256;1299;22765;-84
2023/11/28 07:59:59;;;;;;;44.00;20.80;;;;;;;-3.01;94.92;98152.11;131245;1295;22575;-85
2023/11/28 08:03:01;;;;;;;39.90;21.10;;;;;;;-2.98;94.56;98155.23;131534;1298;26409;-81
2023/11/28 08:06:03;;;;;;;41.40;20.70;;;;;;;-2.96;94.49;98157.32;131505;1304;25177;-84
2023/11/28 08:09:04;;;;;;;40.50;19.90;;;;;;;-2.94;94.07;98165.68;131261;1301;24231;-83
2023/11/28 08:12:04;;;;;;;;;;;;;;;-2.94;93.71;98172.56;131528;1298;22590;-82
2023/11/28 08:15:07;;;;;;;38.10;19.60;;;;;;;-2.94;93.78;98175.65;131295;1299;22623;-84
2023/11/28 08:18:08;;;;;;;33.80;18.40;;;;;;;-2.92;93.36;98180.01;131317;1298;22580;-86
2023/11/28 08:21:08;;;;;;;;;;;;;;;-2.91;93.41;98178.39;131329;1298;22631;-83
2023/11/28 08:24:08;;;;;;;34.00;17.30;;;;;;;-2.89;93.32;98178.58;131517;1292;22606;-83
2023/11/28 08:27:09;;;;;;;35.60;17.10;;;;;;;-2.89;93.03;98176.48;131750;1293;23915;-84
2023/11/28 08:30:11;;;;;;;34.60;17.60;;;;;;;-2.87;92.72;98173.08;131420;1299;23088;-84
2023/11/28 08:33:11;;;;;;;32.70;16.60;;;;;;;-2.86;92.93;98175.70;131303;1290;25147;-84
2023/11/28 08:36:12;;;;;;;31.00;16.80;;;;;;;-2.84;92.94;98176.40;131527;1300;22497;-82
2023/11/28 08:39:14;;;;;;;33.60;17.70;;;;;;;-2.81;92.89;98182.45;131428;1295;23595;-84
2023/11/28 08:42:15;;;;;;;31.20;17.30;;;;;;;-2.82;92.62;98177.13;131524;1299;22555;-83
2023/11/28 08:45:16;;;;;;;30.80;15.70;;;;;;;-2.82;92.72;98181.73;131133;1304;22602;-83
2023/11/28 08:48:16;;;;;;;33.90;17.00;;;;;;;-2.81;92.26;98181.02;131457;1305;23405;-82
2023/11/28 08:51:17;;;;;;;32.50;16.90;;;;;;;-2.79;92.25;98181.36;131544;1305;24432;-83
2023/11/28 08:54:17;;;;;;;;;;;;;;;-2.79;91.86;98178.44;131513;1305;22588;-84
2023/11/28 08:57:18;;;;;;;28.30;15.10;;;;;;;-2.80;91.98;98179.19;131316;1298;25619;-83
2023/11/28 09:00:19;;;;;;;33.00;16.50;;;;;;;-2.81;91.81;98181.19;131320;1299;22551;-84
2023/11/28 09:03:20;;;;;;;33.20;18.80;;;;;;;-2.80;91.94;98185.42;131442;1298;22579;-87
2023/11/28 09:06:21;;;;;;;33.60;14.20;;;;;;;-2.79;91.84;98182.77;131307;1304;23507;-79
2023/11/28 09:09:22;;;;;;;33.80;16.80;;;;;;;-2.78;91.71;98187.10;131580;1301;25513;-85
2023/11/28 09:12:22;;;;;;;28.20;16.20;;;;;;;-2.76;91.69;98183.48;131270;1301;22577;-82
2023/11/28 09:15:23;;;;;;;27.10;16.60;;;;;;;-2.74;91.40;98181.27;131314;1298;22623;-84
2023/11/28 09:18:23;;;;;;;31.20;17.30;;;;;;;-2.70;92.00;98181.66;131178;1298;23125;-84
2023/11/28 09:21:24;;;;;;;27.70;15.80;;;;;;;-2.65;91.64;98181.75;131233;1298;22648;-84
2023/11/28 09:24:24;;;;;;;32.40;17.20;;;;;;;-2.62;92.13;98182.36;131192;1305;22553;-82
2023/11/28 09:27:25;;;;;;;29.00;15.70;;;;;;;-2.59;92.10;98183.49;131179;1301;22598;-82
2023/11/28 09:30:25;;;;;;;23.60;13.80;;;;;;;-2.58;92.15;98194.31;131289;1298;24416;-84
2023/11/28 09:33:26;;;;;;;36.00;18.00;;;;;;;-2.59;92.64;98195.42;131196;1292;22612;-82
2023/11/28 09:36:27;;;;;;;;;;;;;;;-2.61;92.63;98192.80;131151;1298;22581;-85
2023/11/28 09:39:27;;;;;;;25.70;15.40;;;;;;;-2.65;92.67;98192.14;131244;1301;22600;-81
2023/11/28 09:42:31;;;;;;;36.00;18.70;;;;;;;-2.69;92.66;98188.96;131209;1289;23374;-80
2023/11/28 09:45:35;;;;;;;29.10;15.60;;;;;;;-2.73;92.91;98187.23;130990;1301;22804;-84
2023/11/28 09:48:41;;;;;;;31.10;15.80;;;;;;;-2.74;92.85;98181.13;131391;1295;23339;-82
2023/11/28 09:51:46;;;;;;;32.00;17.60;;;;;;;-2.75;93.03;98178.95;131138;1301;22609;-84
2023/11/28 09:54:48;;;;;;;26.40;14.10;;;;;;;-2.71;93.35;98177.89;131182;1299;25401;-83
2023/11/28 09:57:50;;;;;;;33.60;17.00;;;;;;;-2.68;93.02;98174.56;131627;1301;22802;-82
2023/11/28 10:00:51;;;;;;;26.80;15.40;;;;;;;-2.64;93.11;98174.39;131364;1302;22856;-83
2023/11/28 10:03:53;;;;;;;31.10;17.30;;;;;;;-2.59;93.24;98173.05;131555;1298;23309;-82
2023/11/28 10:06:53;;;;;;;32.60;18.10;;;;;;;-2.51;93.39;98176.00;131322;1301;24239;-83
2023/11/28 10:09:55;;;;;;;31.80;17.60;;;;;;;-2.45;92.86;98172.44;131105;1299;22688;-83
2023/11/28 10:12:55;;;;;;;28.10;15.20;;;;;;;-2.42;92.72;98160.20;131364;1301;22744;-81
2023/11/28 10:15:58;;;;;;;35.20;18.30;;;;;;;-2.44;92.49;98156.20;131368;1299;24390;-82
2023/11/28 10:18:58;;;;;;;30.20;17.30;;;;;;;-2.45;92.79;98151.63;131482;1302;24524;-83
2023/11/28 10:22:04;;;;;;;33.30;16.80;;;;;;;-2.42;93.06;98152.24;131342;1291;25380;-83
2023/11/28 10:25:10;;;;;;;33.80;17.20;;;;;;;-2.42;92.93;98153.23;131321;1299;22605;-83
2023/11/28 10:28:15;;;;;;;32.00;17.40;;;;;;;-2.39;92.89;98157.53;131288;1301;23026;-84
2023/11/28 10:31:18;;;;;;;34.10;17.20;;;;;;;-2.38;92.70;98157.39;131419;1294;24378;-83
2023/11/28 10:34:19;;;;;;;28.90;14.50;;;;;;;-2.35;92.64;98164.46;131189;1298;23078;-83
2023/11/28 10:37:22;;;;;;;27.90;13.90;;;;;;;-2.37;92.34;98168.20;131120;1298;22597;-83
2023/11/28 10:40:24;;;;;;;31.00;16.20;;;;;;;-2.35;92.06;98168.45;131268;1298;23153;-84
2023/11/28 10:43:26;;;;;;;26.90;14.30;;;;;;;-2.33;92.64;98161.27;131255;1301;24336;-83
2023/11/28 10:46:28;;;;;;;32.20;16.20;;;;;;;-2.38;92.16;98158.63;131348;1299;22648;-82
2023/11/28 10:49:29;;;;;;;25.10;14.70;;;;;;;-2.42;92.76;98155.67;131227;1301;22684;-83
2023/11/28 10:52:31;;;;;;;27.10;15.80;;;;;;;-2.40;93.24;98157.45;131437;1291;25585;-84
2023/11/28 10:55:42;;;;;;;31.40;17.70;;;;;;;-2.41;92.87;98159.41;131042;1304;22611;-83
2023/11/28 10:58:46;;;;;;;34.90;18.50;;;;;;;-2.40;93.38;98162.94;131177;1298;22597;-84
2023/11/28 11:01:48;;;;;;;29.00;16.60;;;;;;;-2.36;93.34;98160.89;131439;1299;23479;-82
2023/11/28 11:04:49;;;;;;;33.40;17.30;;;;;;;-2.40;93.17;98162.31;131357;1303;22598;-84
2023/11/28 11:07:51;;;;;;;33.50;17.60;;;;;;;-2.41;93.18;98157.36;131261;1301;24307;-84
2023/11/28 11:10:53;;;;;;;30.60;17.30;;;;;;;-2.41;93.35;98159.58;131110;1294;22576;-82
2023/11/28 11:14:20;;;;;;;33.00;17.30;;;;;;;-2.40;93.29;98165.23;131112;1299;22567;-83
2023/11/28 11:17:50;;;;;;;36.90;20.30;;;;;;;-2.38;92.47;98167.49;131146;1305;22621;-82
2023/11/28 11:20:58;;;;;;;25.20;13.90;;;;;;;-2.38;92.63;98172.31;130879;1303;22597;-87
2023/11/28 11:24:00;;;;;;;36.60;20.60;;;;;;;-2.42;92.18;98177.67;130919;1292;25540;-83
2023/11/28 11:27:02;;;;;;;38.80;20.90;;;;;;;-2.46;92.00;98183.37;131030;1304;25606;-84
2023/11/28 11:30:09;;;;;;;32.60;17.10;;;;;;;-2.47;92.35;98190.40;131051;1306;22602;-86
2023/11/28 11:33:13;;;;;;;30.00;16.30;;;;;;;-2.46;92.16;98190.89;131287;1291;25398;-86
2023/11/28 11:36:15;;;;;;;32.90;17.30;;;;;;;-2.50;92.06;98192.74;131268;1297;24477;-85
2023/11/28 11:39:18;;;;;;;31.80;18.30;;;;;;;-2.55;92.26;98191.40;131017;1300;23272;-84
2023/11/28 11:42:21;;;;;;;33.10;16.80;;;;;;;-2.56;92.67;98191.19;131189;1299;22786;-84
2023/11/28 11:45:22;;;;;;;34.90;17.10;;;;;;;-2.61;93.04;98191.61;131222;1291;22594;-84
2023/11/28 11:48:27;;;;;;;30.30;17.10;;;;;;;-2.67;93.33;98192.81;131476;1291;22667;-85
2023/11/28 11:51:28;;;;;;;39.40;19.80;;;;;;;-2.70;93.98;98193.21;131212;1300;24345;-83
2023/11/28 11:54:32;;;;;;;35.70;20.00;;;;;;;-2.72;94.18;98193.88;131262;1302;22563;-83
2023/11/28 11:57:33;;;;;;;41.40;21.30;;;;;;;-2.70;94.39;98197.71;131721;1298;22606;-83
2023/11/28 12:00:35;;;;;;;41.10;21.30;;;;;;;-2.72;94.36;98196.98;131516;1298;22592;-83
2023/11/28 12:03:36;;;;;;;37.70;18.90;;;;;;;-2.72;94.70;98196.48;131456;1294;25380;-82
2023/11/28 12:06:36;;;;;;;43.70;22.60;;;;;;;-2.71;94.80;98195.21;131273;1297;22646;-84
2023/11/28 12:09:37;;;;;;;40.90;21.00;;;;;;;-2.73;95.13;98196.26;131313;1292;22612;-83
2023/11/28 12:12:39;;;;;;;40.70;22.10;;;;;;;-2.72;94.98;98196.87;131313;1298;22803;-84
2023/11/28 12:15:39;;;;;;;39.70;21.20;;;;;;;-2.72;95.21;98202.54;131306;1298;22587;-82
2023/11/28 12:18:40;;;;;;;42.70;22.10;;;;;;;-2.71;95.37;98201.23;131287;1298;25509;-84
2023/11/28 12:21:41;;;;;;;50.40;25.20;;;;;;;-2.67;95.30;98204.09;131263;1289;22574;-86
2023/11/28 12:24:41;;;;;;;;;;;;;;;-2.66;95.32;98206.59;131275;1301;24255;-86
2023/11/28 12:27:42;;;;;;;29.00;16.40;;;;;;;-2.66;95.32;98210.19;131410;1298;22506;-84
2023/11/28 12:30:44;;;;;;;44.30;21.80;;;;;;;-2.62;95.40;98209.71;131266;1298;22639;-84
2023/11/28 12:33:44;;;;;;;37.20;19.90;;;;;;;-2.56;95.26;98213.68;131495;1298;22613;-85
2023/11/28 12:36:45;;;;;;;43.30;21.90;;;;;;;-2.54;94.93;98218.01;131336;1298;22688;-85
2023/11/28 12:39:46;;;;;;;39.00;20.70;;;;;;;-2.52;94.83;98220.77;131026;1301;22640;-86
2023/11/28 12:42:48;;;;;;;39.40;19.70;;;;;;;-2.51;93.75;98230.38;131019;1301;22603;-84
2023/11/28 12:45:55;;;;;;;43.00;20.80;;;;;;;-2.51;93.83;98226.71;131331;1300;24301;-84
2023/11/28 12:48:56;;;;;;;44.50;21.20;;;;;;;-2.49;93.07;98235.72;131247;1297;25278;-83
2023/11/28 12:51:58;;;;;;;40.30;20.00;;;;;;;-2.47;93.16;98240.59;130941;1303;22706;-85
2023/11/28 12:55:01;;;;;;;39.00;19.80;;;;;;;-2.43;92.66;98249.46;131253;1298;23905;-82
2023/11/28 12:58:02;;;;;;;39.30;19.00;;;;;;;-2.39;92.32;98253.80;131139;1297;22613;-84
2023/11/28 13:01:03;;;;;;;37.60;19.80;;;;;;;-2.39;91.93;98258.27;130924;1303;24357;-85
2023/11/28 13:04:04;;;;;;;35.60;19.40;;;;;;;-2.37;91.65;98258.08;131284;1298;25503;-83
2023/11/28 13:07:05;;;;;;;38.30;18.90;;;;;;;-2.35;91.01;98260.05;131148;1299;22639;-84
2023/11/28 13:10:07;;;;;;;42.30;20.40;;;;;;;-2.33;91.20;98268.67;131119;1299;22623;-82
2023/11/28 13:13:07;;;;;;;39.40;19.30;;;;;;;-2.31;90.35;98271.79;130917;1298;25456;-85
2023/11/28 13:16:08;;;;;;;34.10;18.60;;;;;;;-2.32;89.76;98270.30;130915;1298;22577;-83
2023/11/28 13:19:09;;;;;;;34.90;18.70;;;;;;;-2.31;89.81;98279.08;131018;1297;25501;-83
2023/11/28 13:22:11;;;;;;;31.60;16.50;;;;;;;-2.30;89.61;98282.81;131021;1301;23624;-84
2023/11/28 13:25:12;;;;;;;43.00;20.90;;;;;;;-2.30;89.16;98282.80;131010;1298;24130;-87
2023/11/28 13:28:13;;;;;;;38.40;18.70;;;;;;;-2.28;89.45;98284.86;131015;1301;22668;-86
2023/11/28 13:31:14;;;;;;;36.30;18.80;;;;;;;-2.27;87.89;98287.55;130696;1304;22605;-83
2023/11/28 13:34:15;;;;;;;36.50;17.80;;;;;;;-2.27;88.24;98290.34;130983;1301;22678;-83
2023/11/28 13:37:15;;;;;;;56.10;27.90;;;;;;;-2.28;87.88;98300.09;131085;1298;22607;-82
2023/11/28 13:40:16;;;;;;;49.80;28.00;;;;;;;-2.29;87.33;98303.01;131048;1294;22572;-80
2023/11/28 13:43:16;;;;;;;45.80;23.90;;;;;;;-2.30;87.62;98306.74;131184;1294;22670;-83
2023/11/28 13:46:17;;;;;;;46.60;23.50;;;;;;;-2.30;87.32;98311.08;131077;1298;22624;-85